Time;durP1;ratioP1;P1;durP2;ratioP2;P2;SDS_P1;SDS_P2;PMS_P1;PMS_P2;Temp;Humidity;BMP_temperature;BMP_pressure;BME280_temperature;BME280_humidity;BME280_pressure;Samples;Min_cycle;Max_cycle;Signal;HPM_P1;HPM_P2
2022/12/17 13:06:14;;;;;;;;;;;;;;;;;;5090984;28;20075;-44
2022/12/17 13:08:40;;;;;;;7.13;4.22;;;;;;;;;;5090095;28;19904;-44
2022/12/17 13:11:30;;;;;;;13.90;5.60;;;;;;;;;;5090817;28;20145;-44
2022/12/17 13:14:00;;;;;;;7.30;4.72;;;;;;;;;;5074751;28;20405;-44
2022/12/17 13:16:36;;;;;;;7.15;4.25;;;;;;;;;;5074304;28;20025;-47
2022/12/17 13:19:22;;;;;;;7.18;4.43;;;;;;;;;;5091472;28;20020;-44
2022/12/17 13:21:48;;;;;;;11.70;4.53;;;;;;;;;;5053519;28;20044;-44
2022/12/17 13:24:25;;;;;;;7.47;4.57;;;;;;;;;;5091417;28;20085;-44
2022/12/17 13:26:51;;;;;;;12.63;4.65;;;;;;;;;;5084238;28;20560;-44
2022/12/17 13:29:27;;;;;;;8.23;4.53;;;;;;;;;;5088056;28;20476;-44
2022/12/17 13:32:05;;;;;;;6.53;4.22;;;;;;;;;;5089600;28;20039;-44
2022/12/17 13:34:50;;;;;;;5.15;4.25;;;;;;;;;;5086688;28;20024;-44
2022/12/17 13:37:28;;;;;;;8.05;5.05;;;;;;;;;;5090499;28;20024;-44
2022/12/17 13:40:19;;;;;;;7.63;4.57;;;;;;;;;;5089432;28;20415;-44
2022/12/17 13:42:46;;;;;;;6.90;4.40;;;;;;;;;;5089778;28;20035;-44
2022/12/17 13:45:16;;;;;;;5.72;4.55;;;;;;;;;;5102640;28;20048;-44
2022/12/17 13:47:42;;;;;;;7.22;4.07;;;;;;;;;;5086212;28;20016;-44
2022/12/17 13:50:22;;;;;;;5.82;3.75;;;;;;;;;;5086642;28;20119;-44
2022/12/17 13:52:48;;;;;;;5.47;3.80;;;;;;;;;;5086802;28;20060;-44
2022/12/17 13:55:20;;;;;;;5.75;4.28;;;;;;;;;;5093294;28;20067;-45
2022/12/17 13:57:46;;;;;;;6.33;4.50;;;;;;;;;;5094698;28;20274;-44
2022/12/17 14:00:20;;;;;;;6.53;4.13;;;;;;;;;;5090085;28;20685;-44
2022/12/17 14:02:47;;;;;;;6.35;4.53;;;;;;;;;;5086745;28;20038;-44
2022/12/17 14:05:22;;;;;;;6.78;4.47;;;;;;;;;;5094195;28;20537;-46
2022/12/17 14:07:51;;;;;;;6.53;4.55;;;;;;;;;;5090506;28;20035;-44
2022/12/17 14:10:18;;;;;;;5.45;4.20;;;;;;;;;;5089513;28;20028;-44
2022/12/17 14:12:44;;;;;;;7.35;4.55;;;;;;;;;;5086047;28;20074;-44
2022/12/17 14:15:23;;;;;;;6.18;4.28;;;;;;;;;;5078448;28;20135;-44
2022/12/17 14:17:50;;;;;;;8.48;5.07;;;;;;;;;;5092456;28;20020;-45
2022/12/17 14:20:16;;;;;;;7.25;4.40;;;;;;;;;;5092648;28;20101;-44
2022/12/17 14:22:46;;;;;;;8.23;4.30;;;;;;;;;;5092440;28;20055;-44
2022/12/17 14:25:17;;;;;;;6.55;4.75;;;;;;;;;;5092363;28;20036;-45
2022/12/17 14:27:52;;;;;;;7.18;4.97;;;;;;;;;;5079239;28;20099;-44
2022/12/17 14:30:22;;;;;;;7.10;4.80;;;;;;;;;;5090676;28;20060;-44
2022/12/17 14:32:48;;;;;;;7.00;4.25;;;;;;;;;;5092834;28;20043;-44
2022/12/17 14:35:25;;;;;;;8.07;4.65;;;;;;;;;;5094069;28;20032;-44
2022/12/17 14:37:51;;;;;;;6.00;4.28;;;;;;;;;;5091868;28;20029;-44
2022/12/17 14:40:17;;;;;;;8.00;4.30;;;;;;;;;;5090429;28;20024;-44
2022/12/17 14:42:43;;;;;;;6.45;4.72;;;;;;;;;;5091732;28;20042;-44
2022/12/17 14:45:15;;;;;;;7.85;4.75;;;;;;;;;;5093586;28;20039;-45
2022/12/17 14:47:52;;;;;;;6.65;4.60;;;;;;;;;;5082641;28;20506;-44
2022/12/17 14:50:18;;;;;;;5.97;4.28;;;;;;;;;;5092839;28;20476;-44
2022/12/17 14:52:48;;;;;;;8.00;4.88;;;;;;;;;;5089210;28;20020;-44
2022/12/17 14:55:23;;;;;;;8.00;5.00;;;;;;;;;;5095600;28;20093;-44
2022/12/17 14:57:49;;;;;;;6.25;4.78;;;;;;;;;;5096619;28;20052;-44
2022/12/17 15:00:16;;;;;;;6.75;4.78;;;;;;;;;;5088626;28;20025;-44
2022/12/17 15:02:42;;;;;;;8.32;5.00;;;;;;;;;;5089779;28;20082;-44
2022/12/17 15:05:12;;;;;;;8.15;5.70;;;;;;;;;;5093378;28;20514;-44
2022/12/17 15:07:38;;;;;;;8.05;5.40;;;;;;;;;;5080950;28;20036;-44
2022/12/17 15:10:09;;;;;;;7.57;5.90;;;;;;;;;;5085929;28;20099;-44
2022/12/17 15:12:35;;;;;;;7.57;5.40;;;;;;;;;;5092492;28;20016;-44
2022/12/17 15:15:01;;;;;;;8.10;5.63;;;;;;;;;;5083928;28;20031;-44
2022/12/17 15:17:27;;;;;;;6.80;5.20;;;;;;;;;;5090853;28;20056;-47
2022/12/17 15:19:54;;;;;;;8.35;5.15;;;;;;;;;;5093316;28;20111;-44
2022/12/17 15:22:20;;;;;;;7.57;4.68;;;;;;;;;;5083870;28;20073;-44
2022/12/17 15:24:46;;;;;;;8.05;4.88;;;;;;;;;;5084013;28;20042;-44
2022/12/17 15:27:13;;;;;;;7.90;5.70;;;;;;;;;;5080966;28;20111;-44
2022/12/17 15:29:39;;;;;;;7.75;5.43;;;;;;;;;;5092226;28;20060;-45
2022/12/17 15:32:05;;;;;;;7.25;4.88;;;;;;;;;;5091699;28;20091;-44
2022/12/17 15:34:31;;;;;;;7.13;5.15;;;;;;;;;;5096375;28;20024;-46
2022/12/17 15:36:57;;;;;;;16.95;6.13;;;;;;;;;;5091988;28;20032;-44
2022/12/17 15:39:23;;;;;;;9.05;5.88;;;;;;;;;;5091232;28;20024;-45
2022/12/17 15:44:34;;;;;;;6.25;4.55;;;;;;;;;;5088395;28;20520;-44
2022/12/17 15:47:00;;;;;;;9.38;5.45;;;;;;;;;;5092076;28;20087;-44
2022/12/17 15:49:26;;;;;;;7.18;5.22;;;;;;;;;;5091782;28;20389;-48
2022/12/17 15:51:52;;;;;;;7.60;4.80;;;;;;;;;;5090008;28;20028;-44
2022/12/17 15:54:18;;;;;;;6.65;4.97;;;;;;;;;;5087936;28;20035;-44
2022/12/17 15:56:51;;;;;;;7.85;5.18;;;;;;;;;;5097334;28;20020;-44
2022/12/17 15:59:17;;;;;;;8.63;5.50;;;;;;;;;;5095937;28;20024;-44
2022/12/17 16:01:43;;;;;;;8.57;5.55;;;;;;;;;;5091175;28;20422;-44
2022/12/17 16:04:09;;;;;;;7.57;4.97;;;;;;;;;;5093420;28;20032;-44
2022/12/17 16:06:35;;;;;;;7.38;4.97;;;;;;;;;;5084543;28;20067;-43
2022/12/17 16:09:00;;;;;;;7.10;5.50;;;;;;;;;;5088244;28;20016;-43
2022/12/17 16:11:26;;;;;;;17.83;6.25;;;;;;;;;;5082468;28;20047;-47
2022/12/17 16:13:54;;;;;;;7.63;4.80;;;;;;;;;;5100014;28;20034;-44
2022/12/17 16:16:20;;;;;;;8.23;5.22;;;;;;;;;;5084648;28;20036;-44
2022/12/17 16:18:46;;;;;;;6.95;4.97;;;;;;;;;;5091800;28;20035;-46
2022/12/17 16:21:11;;;;;;;7.90;5.30;;;;;;;;;;5085999;28;20063;-44
2022/12/17 16:23:38;;;;;;;8.25;5.43;;;;;;;;;;5089768;28;20042;-45
2022/12/17 16:26:08;;;;;;;9.45;5.80;;;;;;;;;;5087857;28;20063;-43
2022/12/17 16:28:34;;;;;;;7.82;5.15;;;;;;;;;;5091813;28;20099;-44
2022/12/17 16:31:14;;;;;;;9.35;5.10;;;;;;;;;;5105274;28;20131;-43
2022/12/17 16:33:40;;;;;;;24.33;5.32;;;;;;;;;;5079838;28;20028;-47
2022/12/17 16:36:08;;;;;;;9.38;6.00;;;;;;;;;;5080649;27;21846;-45
2022/12/17 16:38:34;;;;;;;8.18;4.82;;;;;;;;;;5093015;28;20095;-44
2022/12/17 16:41:01;;;;;;;15.77;5.18;;;;;;;;;;5089699;28;20612;-45
2022/12/17 16:43:28;;;;;;;7.05;4.60;;;;;;;;;;5087872;28;20099;-48
2022/12/17 16:45:54;;;;;;;10.43;5.50;;;;;;;;;;5090805;28;20036;-45
2022/12/17 16:48:21;;;;;;;10.60;6.68;;;;;;;;;;5101743;28;20024;-43
2022/12/17 16:50:48;;;;;;;9.65;5.07;;;;;;;;;;5101119;28;20638;-45
2022/12/17 16:53:14;;;;;;;7.93;4.88;;;;;;;;;;5091193;28;20059;-44
2022/12/17 16:55:41;;;;;;;11.32;5.40;;;;;;;;;;5094738;28;20095;-44
2022/12/17 16:58:08;;;;;;;10.32;4.82;;;;;;;;;;5101160;28;20066;-44
2022/12/17 17:00:34;;;;;;;9.63;5.38;;;;;;;;;;5102220;28;20032;-45
2022/12/17 17:03:01;;;;;;;11.95;6.18;;;;;;;;;;5094655;28;20109;-44
2022/12/17 17:05:27;;;;;;;6.45;4.93;;;;;;;;;;5096253;28;20032;-48
2022/12/17 17:07:53;;;;;;;7.60;5.57;;;;;;;;;;5079912;28;20040;-43
2022/12/17 17:10:18;;;;;;;8.23;5.63;;;;;;;;;;5095203;28;20024;-46
2022/12/17 17:12:44;;;;;;;7.60;4.95;;;;;;;;;;5086398;28;20107;-44
2022/12/17 17:15:10;;;;;;;9.10;5.00;;;;;;;;;;5097713;28;20020;-43
2022/12/17 17:17:36;;;;;;;19.33;5.20;;;;;;;;;;5086995;28;20097;-43
2022/12/17 17:20:03;;;;;;;7.25;5.05;;;;;;;;;;5090735;28;20027;-44
2022/12/17 17:22:28;;;;;;;7.75;5.00;;;;;;;;;;5086389;28;20070;-46
2022/12/17 17:24:54;;;;;;;8.90;5.78;;;;;;;;;;5097769;28;20063;-44
2022/12/17 17:27:20;;;;;;;5.95;4.35;;;;;;;;;;5090479;28;20036;-44
2022/12/17 17:29:46;;;;;;;7.55;4.45;;;;;;;;;;5094639;28;20028;-44
2022/12/17 17:32:12;;;;;;;8.85;4.60;;;;;;;;;;5092080;28;20111;-44
2022/12/17 17:34:39;;;;;;;7.28;5.22;;;;;;;;;;5093370;28;20451;-44
2022/12/17 17:37:05;;;;;;;8.95;5.05;;;;;;;;;;5090288;28;20085;-44
2022/12/17 17:39:32;;;;;;;6.32;5.25;;;;;;;;;;5092581;28;20105;-44
2022/12/17 17:41:58;;;;;;;6.80;4.88;;;;;;;;;;5091679;28;20064;-44
2022/12/17 17:44:24;;;;;;;6.28;4.78;;;;;;;;;;5098625;28;20080;-47
2022/12/17 17:46:50;;;;;;;7.72;5.55;;;;;;;;;;5089912;28;20442;-44
2022/12/17 17:49:17;;;;;;;7.35;5.10;;;;;;;;;;5094800;28;20072;-45
2022/12/17 17:51:43;;;;;;;7.38;4.90;;;;;;;;;;5089617;28;20107;-43
2022/12/17 17:54:09;;;;;;;6.10;4.63;;;;;;;;;;5093214;28;20028;-44
2022/12/17 17:56:37;;;;;;;10.13;5.43;;;;;;;;;;5091896;28;20461;-44
2022/12/17 17:59:04;;;;;;;7.93;5.18;;;;;;;;;;5097776;28;20105;-44
2022/12/17 18:01:32;;;;;;;8.68;5.50;;;;;;;;;;5091794;28;20365;-48
2022/12/17 18:03:59;;;;;;;11.20;5.97;;;;;;;;;;5096006;28;20107;-44
2022/12/17 18:06:25;;;;;;;7.30;5.07;;;;;;;;;;5090241;28;20103;-47
2022/12/17 18:08:51;;;;;;;12.75;5.80;;;;;;;;;;5096924;28;20078;-44
2022/12/17 18:11:19;;;;;;;10.80;5.50;;;;;;;;;;5088911;28;20020;-44
2022/12/17 18:13:55;;;;;;;9.07;5.80;;;;;;;;;;5093914;28;20040;-45
2022/12/17 18:16:38;;;;;;;9.00;6.47;;;;;;;;;;5088689;28;20027;-44
2022/12/17 18:19:06;;;;;;;13.27;6.57;;;;;;;;;;5094014;28;20388;-45
2022/12/17 18:21:33;;;;;;;11.48;6.40;;;;;;;;;;5086533;28;20039;-44
2022/12/17 18:24:04;;;;;;;9.60;6.43;;;;;;;;;;5095508;28;20545;-44
2022/12/17 18:26:31;;;;;;;9.98;6.50;;;;;;;;;;5090244;28;20020;-47
2022/12/17 18:29:01;;;;;;;10.73;5.93;;;;;;;;;;5093940;28;20028;-44
2022/12/17 18:31:27;;;;;;;9.50;6.07;;;;;;;;;;5086404;28;20027;-47
2022/12/17 18:33:55;;;;;;;9.20;6.40;;;;;;;;;;5096865;28;20044;-44
2022/12/17 18:36:23;;;;;;;8.25;5.57;;;;;;;;;;5089065;28;20028;-43
2022/12/17 18:38:59;;;;;;;7.68;5.65;;;;;;;;;;5093531;28;20040;-44
2022/12/17 18:44:10;;;;;;;8.50;5.93;;;;;;;;;;5094040;28;20451;-45
2022/12/17 18:46:36;;;;;;;9.35;6.28;;;;;;;;;;5088573;28;20101;-44
2022/12/17 18:49:03;;;;;;;8.43;6.03;;;;;;;;;;5094059;28;20034;-45
2022/12/17 18:51:30;;;;;;;8.23;5.90;;;;;;;;;;5086011;28;20030;-47
2022/12/17 18:53:57;;;;;;;9.55;5.95;;;;;;;;;;5095745;28;20173;-44
2022/12/17 18:56:23;;;;;;;9.93;5.57;;;;;;;;;;5084954;28;20049;-44
2022/12/17 18:58:51;;;;;;;10.13;6.10;;;;;;;;;;5094701;28;20876;-44
2022/12/17 19:01:22;;;;;;;8.27;5.88;;;;;;;;;;5090098;28;20024;-43
2022/12/17 19:03:48;;;;;;;8.35;7.00;;;;;;;;;;5091211;28;20105;-43
2022/12/17 19:06:14;;;;;;;8.35;6.13;;;;;;;;;;5086292;28;20029;-44
2022/12/17 19:08:40;;;;;;;9.90;6.05;;;;;;;;;;5091148;28;20036;-45
2022/12/17 19:11:07;;;;;;;8.77;6.35;;;;;;;;;;5091980;28;20042;-44
2022/12/17 19:13:33;;;;;;;12.73;6.90;;;;;;;;;;5087427;28;20036;-44
2022/12/17 19:16:07;;;;;;;8.95;5.80;;;;;;;;;;5087805;28;20028;-44
2022/12/17 19:18:33;;;;;;;8.15;6.55;;;;;;;;;;5091412;28;20032;-43
2022/12/17 19:20:59;;;;;;;10.45;6.25;;;;;;;;;;5094154;28;20098;-43
2022/12/17 19:23:25;;;;;;;7.63;5.85;;;;;;;;;;5081382;28;20076;-47
2022/12/17 19:25:51;;;;;;;7.85;5.85;;;;;;;;;;5089129;28;20477;-44
2022/12/17 19:28:18;;;;;;;10.80;6.97;;;;;;;;;;5094144;28;20032;-45
2022/12/17 19:30:44;;;;;;;8.32;6.35;;;;;;;;;;5091773;28;20025;-45
2022/12/17 19:33:10;;;;;;;7.93;6.03;;;;;;;;;;5092722;28;20028;-45
2022/12/17 19:35:36;;;;;;;8.45;5.82;;;;;;;;;;5090702;28;20027;-44
2022/12/17 19:38:02;;;;;;;9.57;6.00;;;;;;;;;;5090607;28;20039;-44
2022/12/17 19:40:28;;;;;;;10.05;5.88;;;;;;;;;;5091656;28;20060;-47
2022/12/17 19:42:55;;;;;;;7.55;5.95;;;;;;;;;;5091606;28;20194;-44
2022/12/17 19:45:21;;;;;;;7.75;6.00;;;;;;;;;;5089147;28;20047;-45
2022/12/17 19:47:47;;;;;;;9.68;6.32;;;;;;;;;;5090712;28;20653;-44
2022/12/17 19:50:13;;;;;;;8.15;5.80;;;;;;;;;;5097448;28;20119;-44
2022/12/17 19:52:39;;;;;;;7.93;5.68;;;;;;;;;;5084953;28;20027;-46
2022/12/17 19:55:05;;;;;;;9.60;6.60;;;;;;;;;;5091204;28;20088;-44
2022/12/17 19:57:33;;;;;;;7.35;5.35;;;;;;;;;;5089157;28;20064;-45
2022/12/17 19:59:59;;;;;;;8.05;6.05;;;;;;;;;;5092323;28;20476;-44
2022/12/17 20:02:25;;;;;;;9.30;5.63;;;;;;;;;;5090086;28;20031;-47
2022/12/17 20:04:51;;;;;;;11.30;6.15;;;;;;;;;;5089393;28;20048;-44
2022/12/17 20:07:17;;;;;;;8.57;6.05;;;;;;;;;;5090398;28;20141;-44
2022/12/17 20:09:43;;;;;;;9.23;6.55;;;;;;;;;;5092663;28;20124;-46
2022/12/17 20:12:10;;;;;;;8.20;6.03;;;;;;;;;;5088471;28;20433;-45
2022/12/17 20:14:36;;;;;;;7.80;6.00;;;;;;;;;;5088445;28;20050;-45
2022/12/17 20:17:06;;;;;;;9.52;6.25;;;;;;;;;;5086681;28;20020;-46
2022/12/17 20:19:33;;;;;;;7.63;5.82;;;;;;;;;;5091457;28;20075;-45
2022/12/17 20:22:00;;;;;;;10.00;6.95;;;;;;;;;;5087265;28;20024;-44
2022/12/17 20:24:26;;;;;;;14.13;6.15;;;;;;;;;;5093146;28;20193;-47
2022/12/17 20:26:52;;;;;;;9.30;6.53;;;;;;;;;;5088496;28;20059;-44
2022/12/17 20:29:19;;;;;;;8.93;6.45;;;;;;;;;;5093006;28;20048;-44
2022/12/17 20:31:45;;;;;;;12.70;6.40;;;;;;;;;;5086772;28;20691;-45
2022/12/17 20:34:12;;;;;;;9.07;6.18;;;;;;;;;;5093127;28;20138;-44
2022/12/17 20:36:39;;;;;;;9.10;6.13;;;;;;;;;;5085153;28;20095;-44
2022/12/17 20:39:06;;;;;;;7.82;6.03;;;;;;;;;;5091276;28;20027;-44
2022/12/17 20:41:33;;;;;;;10.45;6.85;;;;;;;;;;5086636;28;20086;-44
2022/12/17 20:44:02;;;;;;;10.70;6.70;;;;;;;;;;5091777;28;20373;-43
2022/12/17 20:46:28;;;;;;;9.02;6.03;;;;;;;;;;5083148;28;20047;-47
2022/12/17 20:48:54;;;;;;;9.20;6.60;;;;;;;;;;5088124;28;20020;-46
2022/12/17 20:51:21;;;;;;;9.35;5.95;;;;;;;;;;5087094;28;20032;-45
2022/12/17 20:53:49;;;;;;;9.18;6.13;;;;;;;;;;5091069;28;20028;-46
2022/12/17 20:56:17;;;;;;;10.20;7.22;;;;;;;;;;5082068;28;20048;-45
2022/12/17 20:58:43;;;;;;;9.20;5.88;;;;;;;;;;5073068;28;20012;-45
2022/12/17 21:01:10;;;;;;;9.13;6.55;;;;;;;;;;5070666;28;20036;-45
2022/12/17 21:03:37;;;;;;;10.00;6.82;;;;;;;;;;5089422;28;20031;-44
2022/12/17 21:06:23;;;;;;;9.35;6.65;;;;;;;;;;5070660;28;20485;-45
2022/12/17 21:08:51;;;;;;;8.88;6.63;;;;;;;;;;5078309;28;20024;-45
2022/12/17 21:11:17;;;;;;;9.23;6.75;;;;;;;;;;5082849;28;20037;-45
2022/12/17 21:13:44;;;;;;;9.13;6.40;;;;;;;;;;5088572;28;20111;-45
2022/12/17 21:16:11;;;;;;;9.38;6.63;;;;;;;;;;5101394;28;20024;-45
2022/12/17 21:18:37;;;;;;;9.93;6.97;;;;;;;;;;5097756;28;20020;-45
2022/12/17 21:21:08;;;;;;;8.25;6.50;;;;;;;;;;5097228;28;20457;-45
2022/12/17 21:23:34;;;;;;;9.63;6.38;;;;;;;;;;5093609;28;21039;-45
2022/12/17 21:26:08;;;;;;;10.55;6.68;;;;;;;;;;5095232;28;20436;-45
2022/12/17 21:28:34;;;;;;;9.25;7.07;;;;;;;;;;5085981;28;20346;-45
2022/12/17 21:31:01;;;;;;;10.32;6.53;;;;;;;;;;5097228;28;20366;-45
2022/12/17 21:33:27;;;;;;;11.80;6.43;;;;;;;;;;5071333;28;20056;-48
2022/12/17 21:36:04;;;;;;;9.07;6.22;;;;;;;;;;5091471;28;20032;-45
2022/12/17 21:38:31;;;;;;;10.55;6.75;;;;;;;;;;5087927;28;20027;-48
2022/12/17 21:41:03;;;;;;;15.07;7.10;;;;;;;;;;5085740;28;20089;-45
2022/12/17 21:43:29;;;;;;;9.27;6.50;;;;;;;;;;5086094;28;20039;-46
2022/12/17 21:45:57;;;;;;;11.20;7.38;;;;;;;;;;5087394;28;20044;-45
2022/12/17 21:48:23;;;;;;;9.15;6.55;;;;;;;;;;5088350;28;20430;-45
2022/12/17 21:50:49;;;;;;;10.60;6.45;;;;;;;;;;5087038;28;20036;-45
2022/12/17 21:53:15;;;;;;;14.50;7.32;;;;;;;;;;5089944;28;20039;-45
2022/12/17 21:55:41;;;;;;;9.73;6.72;;;;;;;;;;5087692;28;20063;-45
2022/12/17 21:58:07;;;;;;;10.85;7.47;;;;;;;;;;5089965;28;20020;-45
2022/12/17 22:00:33;;;;;;;9.52;7.05;;;;;;;;;;5088362;28;20089;-45
2022/12/17 22:02:59;;;;;;;10.20;7.07;;;;;;;;;;5088821;28;20039;-45
2022/12/17 22:05:26;;;;;;;9.27;6.65;;;;;;;;;;5088852;28;20378;-48
2022/12/17 22:07:52;;;;;;;10.68;6.70;;;;;;;;;;5071246;28;20404;-45
2022/12/17 22:10:18;;;;;;;10.05;7.20;;;;;;;;;;5088982;28;20250;-46
2022/12/17 22:15:29;;;;;;;8.75;6.57;;;;;;;;;;5092273;28;20123;-48
2022/12/17 22:17:55;;;;;;;10.05;7.18;;;;;;;;;;5092998;28;20053;-45
2022/12/17 22:20:22;;;;;;;9.88;7.30;;;;;;;;;;5090644;28;20034;-46
2022/12/17 22:22:48;;;;;;;10.10;6.55;;;;;;;;;;5100641;28;20078;-45
2022/12/17 22:25:14;;;;;;;12.90;7.55;;;;;;;;;;5105953;28;20036;-46
2022/12/17 22:27:41;;;;;;;10.68;7.53;;;;;;;;;;5088380;28;20023;-45
2022/12/17 22:32:58;;;;;;;10.48;7.20;;;;;;;;;;5091638;28;20039;-45
2022/12/17 22:35:24;;;;;;;;;;;;;;;;;;5093706;28;20016;-45
2022/12/17 22:37:50;;;;;;;8.60;6.18;;;;;;;;;;5093108;28;20375;-45
2022/12/17 22:40:17;;;;;;;10.98;7.07;;;;;;;;;;5093138;28;20016;-45
2022/12/17 22:45:28;;;;;;;9.80;6.35;;;;;;;;;;5089510;28;20404;-48
2022/12/17 22:47:54;;;;;;;9.10;6.93;;;;;;;;;;5092081;28;20034;-45
2022/12/17 22:50:20;;;;;;;10.68;7.55;;;;;;;;;;5091937;28;20103;-45
2022/12/17 22:52:46;;;;;;;7.90;6.00;;;;;;;;;;5107397;28;20073;-45
2022/12/17 22:55:12;;;;;;;10.13;7.07;;;;;;;;;;5094002;28;20101;-45
2022/12/17 22:57:38;;;;;;;10.55;6.78;;;;;;;;;;5087817;28;20020;-45
2022/12/17 23:00:11;;;;;;;8.70;6.50;;;;;;;;;;5091885;28;20065;-45
2022/12/17 23:02:37;;;;;;;9.25;6.60;;;;;;;;;;5091230;28;20020;-45
2022/12/17 23:05:03;;;;;;;9.23;6.70;;;;;;;;;;5092264;28;20055;-45
2022/12/17 23:07:28;;;;;;;9.98;7.07;;;;;;;;;;5091013;28;20496;-47
2022/12/17 23:09:55;;;;;;;11.43;7.47;;;;;;;;;;5092384;28;20032;-45
2022/12/17 23:15:05;;;;;;;9.45;7.28;;;;;;;;;;5092249;28;20056;-45
2022/12/17 23:17:31;;;;;;;9.77;7.50;;;;;;;;;;5090970;28;20031;-46
2022/12/17 23:19:57;;;;;;;11.23;7.22;;;;;;;;;;5091916;28;20036;-45
2022/12/17 23:22:23;;;;;;;11.25;7.22;;;;;;;;;;5090829;28;20055;-45
2022/12/17 23:24:49;;;;;;;11.32;7.88;;;;;;;;;;5090748;28;20060;-45
2022/12/17 23:27:15;;;;;;;9.70;7.20;;;;;;;;;;5091660;28;20477;-45
2022/12/17 23:29:41;;;;;;;9.60;6.80;;;;;;;;;;5092364;28;20036;-45
2022/12/17 23:32:07;;;;;;;10.13;6.78;;;;;;;;;;5091857;28;20039;-46
2022/12/17 23:34:33;;;;;;;9.57;7.53;;;;;;;;;;5089434;28;20423;-45
2022/12/17 23:36:59;;;;;;;10.68;6.72;;;;;;;;;;5092253;28;20024;-45
2022/12/17 23:39:25;;;;;;;10.65;7.15;;;;;;;;;;5092808;28;20050;-48
2022/12/17 23:41:53;;;;;;;9.63;7.15;;;;;;;;;;5092105;28;20032;-45
2022/12/17 23:44:19;;;;;;;9.18;6.60;;;;;;;;;;5092269;28;20385;-45
2022/12/17 23:46:45;;;;;;;9.07;6.32;;;;;;;;;;5087915;28;20035;-45
2022/12/17 23:49:11;;;;;;;10.77;6.70;;;;;;;;;;5092758;28;20433;-45
2022/12/17 23:51:37;;;;;;;8.52;6.70;;;;;;;;;;5091639;28;20141;-45
2022/12/17 23:54:03;;;;;;;8.95;6.32;;;;;;;;;;5092249;28;20095;-45
2022/12/17 23:56:29;;;;;;;8.88;6.25;;;;;;;;;;5098470;28;20028;-48
2022/12/17 23:58:57;;;;;;;8.60;6.22;;;;;;;;;;5098755;28;20012;-45
